sensor_id;sensor_type;location;lat;lon;timestamp;pressure;altitude;pressure_sealevel;temperature;humidity
79453;BME280;68899;52.116;5.404;2024-01-30T00:00:33;102647.59;;;6.43;90.33
79453;BME280;68899;52.116;5.404;2024-01-30T00:02:59;102654.59;;;6.43;90.32
79453;BME280;68899;52.116;5.404;2024-01-30T00:05:26;102652.81;;;6.45;90.22
79453;BME280;68899;52.116;5.404;2024-01-30T00:07:53;102658.88;;;6.47;90.29
79453;BME280;68899;52.116;5.404;2024-01-30T00:10:20;102654.50;;;6.47;90.64
79453;BME280;68899;52.116;5.404;2024-01-30T00:12:47;102658.91;;;6.45;90.53
79453;BME280;68899;52.116;5.404;2024-01-30T00:15:13;102660.63;;;6.46;90.47
79453;BME280;68899;52.116;5.404;2024-01-30T00:17:40;102656.25;;;6.47;90.54
79453;BME280;68899;52.116;5.404;2024-01-30T00:20:07;102648.41;;;6.47;90.51
79453;BME280;68899;52.116;5.404;2024-01-30T00:22:35;102656.25;;;6.47;90.41
79453;BME280;68899;52.116;5.404;2024-01-30T00:25:02;102651.94;;;6.44;89.96
79453;BME280;68899;52.116;5.404;2024-01-30T00:27:28;102658.06;;;6.42;90.03
79453;BME280;68899;52.116;5.404;2024-01-30T00:29:55;102650.25;;;6.40;89.88
79453;BME280;68899;52.116;5.404;2024-01-30T00:32:22;102664.19;;;6.41;90.19
79453;BME280;68899;52.116;5.404;2024-01-30T00:34:49;102651.13;;;6.39;90.12
79453;BME280;68899;52.116;5.404;2024-01-30T00:37:16;102649.41;;;6.38;90.19
79453;BME280;68899;52.116;5.404;2024-01-30T00:39:43;102645.03;;;6.39;90.16
79453;BME280;68899;52.116;5.404;2024-01-30T00:42:10;102642.44;;;6.39;90.00
79453;BME280;68899;52.116;5.404;2024-01-30T00:44:36;102638.06;;;6.39;90.21
79453;BME280;68899;52.116;5.404;2024-01-30T00:47:05;102643.25;;;6.41;89.75
79453;BME280;68899;52.116;5.404;2024-01-30T00:49:31;102647.63;;;6.40;89.85
79453;BME280;68899;52.116;5.404;2024-01-30T00:51:58;102641.53;;;6.40;90.08
79453;BME280;68899;52.116;5.404;2024-01-30T00:54:25;102652.00;;;6.40;89.75
79453;BME280;68899;52.116;5.404;2024-01-30T00:56:53;102642.47;;;6.37;90.33
79453;BME280;68899;52.116;5.404;2024-01-30T00:59:20;102639.00;;;6.35;89.41
79453;BME280;68899;52.116;5.404;2024-01-30T01:01:46;102639.03;;;6.32;89.65
79453;BME280;68899;52.116;5.404;2024-01-30T01:04:13;102640.78;;;6.32;89.59
79453;BME280;68899;52.116;5.404;2024-01-30T01:06:39;102643.44;;;6.30;89.31
79453;BME280;68899;52.116;5.404;2024-01-30T01:09:11;102639.16;;;6.24;89.38
79453;BME280;68899;52.116;5.404;2024-01-30T01:11:37;102638.28;;;6.24;89.18
79453;BME280;68899;52.116;5.404;2024-01-30T01:14:04;102644.44;;;6.21;89.51
79453;BME280;68899;52.116;5.404;2024-01-30T01:16:31;102640.13;;;6.19;89.25
79453;BME280;68899;52.116;5.404;2024-01-30T01:18:57;102636.69;;;6.14;88.29
79453;BME280;68899;52.116;5.404;2024-01-30T01:21:24;102628.91;;;6.11;88.40
79453;BME280;68899;52.116;5.404;2024-01-30T01:23:51;102624.59;;;6.08;88.91
79453;BME280;68899;52.116;5.404;2024-01-30T01:26:18;102618.50;;;6.09;88.54
79453;BME280;68899;52.116;5.404;2024-01-30T01:28:44;102610.66;;;6.09;89.21
79453;BME280;68899;52.116;5.404;2024-01-30T01:31:10;102605.44;;;6.08;88.83
79453;BME280;68899;52.116;5.404;2024-01-30T01:33:37;102609.78;;;6.07;89.21
79453;BME280;68899;52.116;5.404;2024-01-30T01:36:04;102611.56;;;6.05;89.14
79453;BME280;68899;52.116;5.404;2024-01-30T01:38:30;102604.63;;;6.04;89.53
79453;BME280;68899;52.116;5.404;2024-01-30T01:40:57;102612.44;;;6.06;90.13
79453;BME280;68899;52.116;5.404;2024-01-30T01:43:23;102608.06;;;6.06;89.82
79453;BME280;68899;52.116;5.404;2024-01-30T01:45:50;102608.97;;;6.04;89.70
79453;BME280;68899;52.116;5.404;2024-01-30T01:48:17;102617.75;;;6.01;89.55
79453;BME280;68899;52.116;5.404;2024-01-30T01:50:43;102621.22;;;5.99;89.36
79453;BME280;68899;52.116;5.404;2024-01-30T01:53:11;102609.91;;;5.98;89.16
79453;BME280;68899;52.116;5.404;2024-01-30T01:55:38;102615.16;;;5.97;88.83
79453;BME280;68899;52.116;5.404;2024-01-30T01:58:05;102612.59;;;5.95;88.66
79453;BME280;68899;52.116;5.404;2024-01-30T02:00:31;102610.88;;;5.92;88.36
79453;BME280;68899;52.116;5.404;2024-01-30T02:02:58;102610.91;;;5.91;88.59
79453;BME280;68899;52.116;5.404;2024-01-30T02:05:26;102615.25;;;5.90;88.42
79453;BME280;68899;52.116;5.404;2024-01-30T02:07:54;102612.63;;;5.89;87.77
79453;BME280;68899;52.116;5.404;2024-01-30T02:10:21;102607.50;;;5.84;88.19
79453;BME280;68899;52.116;5.404;2024-01-30T02:12:48;102603.97;;;5.87;88.41
79453;BME280;68899;52.116;5.404;2024-01-30T02:15:15;102609.13;;;5.90;88.19
79453;BME280;68899;52.116;5.404;2024-01-30T02:17:42;102603.09;;;5.91;88.89
79453;BME280;68899;52.116;5.404;2024-01-30T02:20:09;102605.69;;;5.88;88.37
79453;BME280;68899;52.116;5.404;2024-01-30T02:22:36;102610.94;;;5.86;88.23
79453;BME280;68899;52.116;5.404;2024-01-30T02:25:04;102606.59;;;5.85;88.83
79453;BME280;68899;52.116;5.404;2024-01-30T02:27:30;102606.63;;;5.84;88.38
79453;BME280;68899;52.116;5.404;2024-01-30T02:29:57;102608.38;;;5.83;88.81
79453;BME280;68899;52.116;5.404;2024-01-30T02:32:23;102606.66;;;5.82;88.87
79453;BME280;68899;52.116;5.404;2024-01-30T02:34:50;102616.19;;;5.82;89.13
79453;BME280;68899;52.116;5.404;2024-01-30T02:37:17;102608.38;;;5.82;88.81
79453;BME280;68899;52.116;5.404;2024-01-30T02:39:43;102611.88;;;5.81;88.07
79453;BME280;68899;52.116;5.404;2024-01-30T02:42:10;102611.91;;;5.79;87.95
79453;BME280;68899;52.116;5.404;2024-01-30T02:44:36;102604.91;;;5.81;88.04
79453;BME280;68899;52.116;5.404;2024-01-30T02:47:03;102609.28;;;5.79;87.70
79453;BME280;68899;52.116;5.404;2024-01-30T02:49:29;102600.63;;;5.77;88.31
79453;BME280;68899;52.116;5.404;2024-01-30T02:51:56;102593.63;;;5.79;87.80
79453;BME280;68899;52.116;5.404;2024-01-30T02:54:23;102590.97;;;5.82;88.80
79453;BME280;68899;52.116;5.404;2024-01-30T02:56:49;102594.41;;;5.86;88.71
79453;BME280;68899;52.116;5.404;2024-01-30T02:59:16;102583.91;;;5.89;89.09
79453;BME280;68899;52.116;5.404;2024-01-30T03:01:43;102586.53;;;5.92;88.82
79453;BME280;68899;52.116;5.404;2024-01-30T03:04:11;102586.50;;;5.93;89.13
79453;BME280;68899;52.116;5.404;2024-01-30T03:06:38;102583.00;;;5.94;89.44
79453;BME280;68899;52.116;5.404;2024-01-30T03:09:04;102580.34;;;5.96;89.85
79453;BME280;68899;52.116;5.404;2024-01-30T03:11:31;102588.13;;;5.99;89.92
79453;BME280;68899;52.116;5.404;2024-01-30T03:13:58;102570.75;;;6.00;89.94
79453;BME280;68899;52.116;5.404;2024-01-30T03:16:24;102570.66;;;6.04;89.75
79453;BME280;68899;52.116;5.404;2024-01-30T03:18:51;102561.00;;;6.08;89.70
79453;BME280;68899;52.116;5.404;2024-01-30T03:21:18;102563.63;;;6.09;90.40
79453;BME280;68899;52.116;5.404;2024-01-30T03:23:44;102561.84;;;6.11;90.00
79453;BME280;68899;52.116;5.404;2024-01-30T03:26:11;102553.16;;;6.09;89.73
79453;BME280;68899;52.116;5.404;2024-01-30T03:28:39;102566.22;;;6.09;89.67
79453;BME280;68899;52.116;5.404;2024-01-30T03:31:05;102561.00;;;6.08;89.51
79453;BME280;68899;52.116;5.404;2024-01-30T03:33:32;102557.53;;;6.09;90.44
79453;BME280;68899;52.116;5.404;2024-01-30T03:36:03;102561.91;;;6.08;90.00
79453;BME280;68899;52.116;5.404;2024-01-30T03:38:29;102562.75;;;6.09;89.92
79453;BME280;68899;52.116;5.404;2024-01-30T03:40:56;102558.41;;;6.09;89.62
79453;BME280;68899;52.116;5.404;2024-01-30T03:43:23;102554.91;;;6.10;89.71
79453;BME280;68899;52.116;5.404;2024-01-30T03:45:50;102546.13;;;6.13;89.98
79453;BME280;68899;52.116;5.404;2024-01-30T03:48:16;102545.22;;;6.15;89.86
79453;BME280;68899;52.116;5.404;2024-01-30T03:50:43;102540.84;;;6.17;89.95
79453;BME280;68899;52.116;5.404;2024-01-30T03:53:09;102540.00;;;6.17;89.75
79453;BME280;68899;52.116;5.404;2024-01-30T03:55:36;102541.69;;;6.19;90.11
79453;BME280;68899;52.116;5.404;2024-01-30T03:58:02;102534.66;;;6.21;89.81
79453;BME280;68899;52.116;5.404;2024-01-30T04:00:29;102537.25;;;6.23;89.82
79453;BME280;68899;52.116;5.404;2024-01-30T04:02:56;102544.19;;;6.24;90.27
79453;BME280;68899;52.116;5.404;2024-01-30T04:05:23;102543.31;;;6.25;90.15
79453;BME280;68899;52.116;5.404;2024-01-30T04:07:49;102548.53;;;6.27;89.77
79453;BME280;68899;52.116;5.404;2024-01-30T04:10:16;102550.22;;;6.29;89.80
79453;BME280;68899;52.116;5.404;2024-01-30T04:12:42;102551.09;;;6.30;89.80
79453;BME280;68899;52.116;5.404;2024-01-30T04:15:09;102553.75;;;6.28;90.16
79453;BME280;68899;52.116;5.404;2024-01-30T04:17:35;102564.22;;;6.27;89.60
79453;BME280;68899;52.116;5.404;2024-01-30T04:20:02;102552.91;;;6.24;90.19
79453;BME280;68899;52.116;5.404;2024-01-30T04:22:29;102552.88;;;6.28;89.93
79453;BME280;68899;52.116;5.404;2024-01-30T04:24:55;102545.91;;;6.28;90.13
79453;BME280;68899;52.116;5.404;2024-01-30T04:27:22;102545.00;;;6.29;90.07
79453;BME280;68899;52.116;5.404;2024-01-30T04:29:48;102536.25;;;6.32;89.85
79453;BME280;68899;52.116;5.404;2024-01-30T04:32:15;102532.72;;;6.33;89.91
79453;BME280;68899;52.116;5.404;2024-01-30T04:34:41;102525.75;;;6.35;89.85
79453;BME280;68899;52.116;5.404;2024-01-30T04:37:08;102523.97;;;6.37;90.23
79453;BME280;68899;52.116;5.404;2024-01-30T04:39:34;102526.56;;;6.38;89.69
79453;BME280;68899;52.116;5.404;2024-01-30T04:42:01;102525.66;;;6.39;89.92
79453;BME280;68899;52.116;5.404;2024-01-30T04:44:29;102530.03;;;6.39;90.31
79453;BME280;68899;52.116;5.404;2024-01-30T04:46:56;102509.94;;;6.41;90.01
79453;BME280;68899;52.116;5.404;2024-01-30T04:49:25;102518.66;;;6.43;89.92
79453;BME280;68899;52.116;5.404;2024-01-30T04:51:52;102522.97;;;6.42;89.52
79453;BME280;68899;52.116;5.404;2024-01-30T04:54:19;102529.97;;;6.42;90.23
79453;BME280;68899;52.116;5.404;2024-01-30T04:56:45;102520.38;;;6.42;89.80
79453;BME280;68899;52.116;5.404;2024-01-30T04:59:12;102520.38;;;6.42;90.02
79453;BME280;68899;52.116;5.404;2024-01-30T05:01:38;102523.84;;;6.44;89.97
79453;BME280;68899;52.116;5.404;2024-01-30T05:04:07;102530.78;;;6.45;90.08
79453;BME280;68899;52.116;5.404;2024-01-30T05:06:37;102528.16;;;6.47;90.23
79453;BME280;68899;52.116;5.404;2024-01-30T05:09:03;102522.03;;;6.48;89.81
79453;BME280;68899;52.116;5.404;2024-01-30T05:11:30;102517.66;;;6.48;90.04
79453;BME280;68899;52.116;5.404;2024-01-30T05:13:57;102525.47;;;6.50;90.21
79453;BME280;68899;52.116;5.404;2024-01-30T05:16:24;102528.06;;;6.51;90.11
79453;BME280;68899;52.116;5.404;2024-01-30T05:18:51;102534.13;;;6.54;90.24
79453;BME280;68899;52.116;5.404;2024-01-30T05:21:18;102524.47;;;6.57;90.00
79453;BME280;68899;52.116;5.404;2024-01-30T05:23:45;102525.28;;;6.59;89.80
79453;BME280;68899;52.116;5.404;2024-01-30T05:26:11;102518.31;;;6.60;89.66
79453;BME280;68899;52.116;5.404;2024-01-30T05:28:38;102509.59;;;6.61;90.00
79453;BME280;68899;52.116;5.404;2024-01-30T05:31:04;102511.28;;;6.63;90.41
79453;BME280;68899;52.116;5.404;2024-01-30T05:33:30;102506.06;;;6.63;90.21
79453;BME280;68899;52.116;5.404;2024-01-30T05:35:57;102494.63;;;6.67;90.17
79453;BME280;68899;52.116;5.404;2024-01-30T05:38:24;102500.69;;;6.71;90.47
79453;BME280;68899;52.116;5.404;2024-01-30T05:40:50;102500.66;;;6.72;90.47
79453;BME280;68899;52.116;5.404;2024-01-30T05:43:17;102511.13;;;6.72;90.27
79453;BME280;68899;52.116;5.404;2024-01-30T05:45:43;102518.97;;;6.72;89.98
79453;BME280;68899;52.116;5.404;2024-01-30T05:48:10;102519.78;;;6.74;90.65
79453;BME280;68899;52.116;5.404;2024-01-30T05:50:37;102499.69;;;6.76;90.56
79453;BME280;68899;52.116;5.404;2024-01-30T05:53:03;102510.16;;;6.78;90.26
79453;BME280;68899;52.116;5.404;2024-01-30T05:55:30;102511.00;;;6.78;90.93
79453;BME280;68899;52.116;5.404;2024-01-30T05:57:57;102511.88;;;6.79;90.43
79453;BME280;68899;52.116;5.404;2024-01-30T06:00:24;102517.09;;;6.79;90.87
79453;BME280;68899;52.116;5.404;2024-01-30T06:02:50;102519.69;;;6.80;90.65
79453;BME280;68899;52.116;5.404;2024-01-30T06:05:17;102524.03;;;6.82;90.69
79453;BME280;68899;52.116;5.404;2024-01-30T06:07:43;102521.41;;;6.82;90.80
79453;BME280;68899;52.116;5.404;2024-01-30T06:10:10;102525.75;;;6.83;90.85
79453;BME280;68899;52.116;5.404;2024-01-30T06:12:37;102519.66;;;6.82;91.18
79453;BME280;68899;52.116;5.404;2024-01-30T06:15:04;102516.13;;;6.83;90.95
79453;BME280;68899;52.116;5.404;2024-01-30T06:17:31;102515.28;;;6.83;91.02
79453;BME280;68899;52.116;5.404;2024-01-30T06:19:58;102521.38;;;6.83;91.06
79453;BME280;68899;52.116;5.404;2024-01-30T06:22:24;102524.84;;;6.84;90.93
79453;BME280;68899;52.116;5.404;2024-01-30T06:24:51;102517.84;;;6.84;91.40
79453;BME280;68899;52.116;5.404;2024-01-30T06:27:17;102516.97;;;6.87;90.92
79453;BME280;68899;52.116;5.404;2024-01-30T06:29:44;102519.53;;;6.88;91.07
79453;BME280;68899;52.116;5.404;2024-01-30T06:32:10;102526.50;;;6.89;90.69
79453;BME280;68899;52.116;5.404;2024-01-30T06:34:37;102527.31;;;6.91;90.92
79453;BME280;68899;52.116;5.404;2024-01-30T06:37:05;102519.50;;;6.90;90.55
79453;BME280;68899;52.116;5.404;2024-01-30T06:39:31;102529.97;;;6.90;90.54
79453;BME280;68899;52.116;5.404;2024-01-30T06:41:58;102531.69;;;6.91;90.46
79453;BME280;68899;52.116;5.404;2024-01-30T06:44:24;102536.03;;;6.92;90.70
79453;BME280;68899;52.116;5.404;2024-01-30T06:46:51;102532.53;;;6.93;90.70
79453;BME280;68899;52.116;5.404;2024-01-30T06:49:17;102533.41;;;6.92;90.51
79453;BME280;68899;52.116;5.404;2024-01-30T06:51:44;102536.00;;;6.93;90.71
79453;BME280;68899;52.116;5.404;2024-01-30T06:54:10;102529.91;;;6.93;90.45
79453;BME280;68899;52.116;5.404;2024-01-30T06:56:37;102527.25;;;6.94;90.60
79453;BME280;68899;52.116;5.404;2024-01-30T06:59:03;102540.34;;;6.94;90.25
79453;BME280;68899;52.116;5.404;2024-01-30T07:01:30;102536.84;;;6.95;90.10
79453;BME280;68899;52.116;5.404;2024-01-30T07:03:57;102542.09;;;6.95;90.57
79453;BME280;68899;52.116;5.404;2024-01-30T07:06:24;102539.47;;;6.95;90.44
79453;BME280;68899;52.116;5.404;2024-01-30T07:08:51;102538.56;;;6.95;90.76
79453;BME280;68899;52.116;5.404;2024-01-30T07:11:19;102529.88;;;6.96;90.38
79453;BME280;68899;52.116;5.404;2024-01-30T07:13:46;102534.19;;;6.97;90.45
79453;BME280;68899;52.116;5.404;2024-01-30T07:16:13;102543.78;;;6.98;90.74
79453;BME280;68899;52.116;5.404;2024-01-30T07:18:40;102547.25;;;6.98;90.83
79453;BME280;68899;52.116;5.404;2024-01-30T07:21:07;102531.56;;;6.98;90.88
79453;BME280;68899;52.116;5.404;2024-01-30T07:23:33;102546.41;;;6.96;90.58
79453;BME280;68899;52.116;5.404;2024-01-30T07:26:01;102555.09;;;6.98;90.87
79453;BME280;68899;52.116;5.404;2024-01-30T07:28:27;102542.88;;;6.99;90.16
79453;BME280;68899;52.116;5.404;2024-01-30T07:30:54;102551.59;;;6.99;90.37
79453;BME280;68899;52.116;5.404;2024-01-30T07:33:20;102555.03;;;7.01;90.64
79453;BME280;68899;52.116;5.404;2024-01-30T07:35:47;102556.75;;;7.02;90.64
79453;BME280;68899;52.116;5.404;2024-01-30T07:38:13;102555.84;;;7.03;90.52
79453;BME280;68899;52.116;5.404;2024-01-30T07:40:40;102569.72;;;7.08;90.59
79453;BME280;68899;52.116;5.404;2024-01-30T07:43:07;102563.59;;;7.09;90.65
79453;BME280;68899;52.116;5.404;2024-01-30T07:45:34;102559.22;;;7.10;90.65
79453;BME280;68899;52.116;5.404;2024-01-30T07:48:01;102560.91;;;7.14;90.77
79453;BME280;68899;52.116;5.404;2024-01-30T07:50:27;102568.72;;;7.16;90.98
79453;BME280;68899;52.116;5.404;2024-01-30T07:52:59;102564.31;;;7.18;91.25
79453;BME280;68899;52.116;5.404;2024-01-30T07:55:26;102570.38;;;7.21;90.84
79453;BME280;68899;52.116;5.404;2024-01-30T07:57:55;102574.63;;;7.25;91.02
79453;BME280;68899;52.116;5.404;2024-01-30T08:00:22;102575.44;;;7.27;90.97
79453;BME280;68899;52.116;5.404;2024-01-30T08:02:55;102572.78;;;7.29;90.87
79453;BME280;68899;52.116;5.404;2024-01-30T08:05:22;102584.06;;;7.34;90.75
79453;BME280;68899;52.116;5.404;2024-01-30T08:07:50;102583.97;;;7.37;91.19
79453;BME280;68899;52.116;5.404;2024-01-30T08:10:17;102577.81;;;7.41;90.87
79453;BME280;68899;52.116;5.404;2024-01-30T08:12:46;102575.13;;;7.44;91.09
79453;BME280;68899;52.116;5.404;2024-01-30T08:15:13;102573.28;;;7.49;91.05
79453;BME280;68899;52.116;5.404;2024-01-30T08:17:40;102568.81;;;7.53;91.12
79453;BME280;68899;52.116;5.404;2024-01-30T08:20:07;102572.25;;;7.55;91.35
79453;BME280;68899;52.116;5.404;2024-01-30T08:22:35;102566.97;;;7.58;91.44
79453;BME280;68899;52.116;5.404;2024-01-30T08:25:01;102574.72;;;7.62;90.92
79453;BME280;68899;52.116;5.404;2024-01-30T08:27:28;102572.94;;;7.64;90.91
79453;BME280;68899;52.116;5.404;2024-01-30T08:29:54;102572.00;;;7.67;91.24
79453;BME280;68899;52.116;5.404;2024-01-30T08:32:21;102581.53;;;7.71;91.17
79453;BME280;68899;52.116;5.404;2024-01-30T08:34:48;102580.56;;;7.75;91.15
79453;BME280;68899;52.116;5.404;2024-01-30T08:37:14;102580.50;;;7.78;91.23
79453;BME280;68899;52.116;5.404;2024-01-30T08:39:43;102576.03;;;7.83;91.63
79453;BME280;68899;52.116;5.404;2024-01-30T08:42:10;102572.41;;;7.87;91.87
79453;BME280;68899;52.116;5.404;2024-01-30T08:44:37;102568.00;;;7.91;91.69
79453;BME280;68899;52.116;5.404;2024-01-30T08:47:04;102562.63;;;7.96;91.58
79453;BME280;68899;52.116;5.404;2024-01-30T08:49:31;102574.78;;;8.00;91.70
79453;BME280;68899;52.116;5.404;2024-01-30T08:51:58;102569.47;;;8.03;92.10
79453;BME280;68899;52.116;5.404;2024-01-30T08:54:24;102572.00;;;8.06;92.00
79453;BME280;68899;52.116;5.404;2024-01-30T08:56:52;102580.66;;;8.09;92.07
79453;BME280;68899;52.116;5.404;2024-01-30T08:59:19;102580.50;;;8.15;91.92
79453;BME280;68899;52.116;5.404;2024-01-30T09:01:46;102584.75;;;8.21;92.00
79453;BME280;68899;52.116;5.404;2024-01-30T09:04:28;102580.28;;;8.26;92.23
79453;BME280;68899;52.116;5.404;2024-01-30T09:06:55;102576.56;;;8.33;92.19
79453;BME280;68899;52.116;5.404;2024-01-30T09:09:22;102582.47;;;8.44;92.36
79453;BME280;68899;52.116;5.404;2024-01-30T09:11:49;102576.13;;;8.53;92.45
79453;BME280;68899;52.116;5.404;2024-01-30T09:14:15;102579.47;;;8.58;92.14
79453;BME280;68899;52.116;5.404;2024-01-30T09:16:42;102575.00;;;8.63;91.91
79453;BME280;68899;52.116;5.404;2024-01-30T09:19:08;102580.09;;;8.69;92.07
79453;BME280;68899;52.116;5.404;2024-01-30T09:21:35;102584.25;;;8.76;91.97
79453;BME280;68899;52.116;5.404;2024-01-30T09:24:02;102592.94;;;8.80;91.69
79453;BME280;68899;52.116;5.404;2024-01-30T09:26:30;102591.16;;;8.81;91.52
79453;BME280;68899;52.116;5.404;2024-01-30T09:28:56;102599.91;;;8.81;91.69
79453;BME280;68899;52.116;5.404;2024-01-30T09:31:23;102598.09;;;8.83;91.59
79453;BME280;68899;52.116;5.404;2024-01-30T09:33:50;102592.84;;;8.83;91.40
79453;BME280;68899;52.116;5.404;2024-01-30T09:36:17;102590.22;;;8.83;91.51
79453;BME280;68899;52.116;5.404;2024-01-30T09:38:46;102600.66;;;8.85;90.87
79453;BME280;68899;52.116;5.404;2024-01-30T09:41:12;102610.25;;;8.86;91.13
79453;BME280;68899;52.116;5.404;2024-01-30T09:43:39;102602.38;;;8.87;91.25
79453;BME280;68899;52.116;5.404;2024-01-30T09:46:11;102611.00;;;8.91;91.22
79453;BME280;68899;52.116;5.404;2024-01-30T09:48:41;102609.19;;;8.93;91.48
79453;BME280;68899;52.116;5.404;2024-01-30T09:51:09;102605.66;;;8.94;90.90
79453;BME280;68899;52.116;5.404;2024-01-30T09:53:36;102610.91;;;8.95;91.01
79453;BME280;68899;52.116;5.404;2024-01-30T09:56:04;102609.09;;;8.97;91.07
79453;BME280;68899;52.116;5.404;2024-01-30T09:58:31;102615.16;;;8.99;90.82
79453;BME280;68899;52.116;5.404;2024-01-30T10:00:58;102616.88;;;9.00;90.55
79453;BME280;68899;52.116;5.404;2024-01-30T10:03:25;102622.94;;;9.02;90.32
79453;BME280;68899;52.116;5.404;2024-01-30T10:05:55;102629.00;;;9.06;90.63
79453;BME280;68899;52.116;5.404;2024-01-30T10:08:23;102621.94;;;9.08;90.62
79453;BME280;68899;52.116;5.404;2024-01-30T10:10:50;102627.13;;;9.10;90.42
79453;BME280;68899;52.116;5.404;2024-01-30T10:13:16;102614.78;;;9.13;90.23
79453;BME280;68899;52.116;5.404;2024-01-30T10:15:44;102620.97;;;9.12;90.38
79453;BME280;68899;52.116;5.404;2024-01-30T10:18:11;102616.53;;;9.14;90.02
79453;BME280;68899;52.116;5.404;2024-01-30T10:20:38;102617.31;;;9.16;90.45
79453;BME280;68899;52.116;5.404;2024-01-30T10:23:04;102629.47;;;9.20;90.13
79453;BME280;68899;52.116;5.404;2024-01-30T10:25:31;102621.47;;;9.25;89.78
79453;BME280;68899;52.116;5.404;2024-01-30T10:27:58;102624.78;;;9.31;89.74
79453;BME280;68899;52.116;5.404;2024-01-30T10:30:25;102615.00;;;9.37;89.88
79453;BME280;68899;52.116;5.404;2024-01-30T10:32:52;102603.53;;;9.41;89.63
79453;BME280;68899;52.116;5.404;2024-01-30T10:35:19;102616.47;;;9.47;89.71
79453;BME280;68899;52.116;5.404;2024-01-30T10:37:48;102631.16;;;9.54;89.53
79453;BME280;68899;52.116;5.404;2024-01-30T10:40:15;102627.38;;;9.62;89.38
79453;BME280;68899;52.116;5.404;2024-01-30T10:42:43;102615.94;;;9.65;89.53
79453;BME280;68899;52.116;5.404;2024-01-30T10:45:13;102613.28;;;9.67;88.78
79453;BME280;68899;52.116;5.404;2024-01-30T10:47:53;102626.47;;;9.63;89.02
79453;BME280;68899;52.116;5.404;2024-01-30T10:50:24;102636.25;;;9.60;88.96
79453;BME280;68899;52.116;5.404;2024-01-30T10:52:52;102616.06;;;9.60;88.74
79453;BME280;68899;52.116;5.404;2024-01-30T10:55:19;102628.34;;;9.60;88.84
79453;BME280;68899;52.116;5.404;2024-01-30T10:57:46;102631.88;;;9.59;88.74
79453;BME280;68899;52.116;5.404;2024-01-30T11:00:14;102628.25;;;9.63;88.39
79453;BME280;68899;52.116;5.404;2024-01-30T11:02:44;102636.06;;;9.66;88.18
79453;BME280;68899;52.116;5.404;2024-01-30T11:05:11;102626.31;;;9.70;87.88
79453;BME280;68899;52.116;5.404;2024-01-30T11:07:41;102623.69;;;9.70;87.41
79453;BME280;68899;52.116;5.404;2024-01-30T11:10:08;102636.72;;;9.73;87.18
79453;BME280;68899;52.116;5.404;2024-01-30T11:12:40;102635.75;;;9.77;86.94
79453;BME280;68899;52.116;5.404;2024-01-30T11:15:15;102629.47;;;9.82;86.98
79453;BME280;68899;52.116;5.404;2024-01-30T11:17:42;102628.50;;;9.85;87.08
79453;BME280;68899;52.116;5.404;2024-01-30T11:22:45;102631.13;;;9.85;86.53
79453;BME280;68899;52.116;5.404;2024-01-30T11:25:13;102639.88;;;9.85;86.12
79453;BME280;68899;52.116;5.404;2024-01-30T11:27:41;102641.59;;;9.86;86.39
79453;BME280;68899;52.116;5.404;2024-01-30T11:30:08;102640.69;;;9.87;85.97
79453;BME280;68899;52.116;5.404;2024-01-30T11:32:35;102647.66;;;9.88;85.94
79453;BME280;68899;52.116;5.404;2024-01-30T11:35:05;102642.44;;;9.87;85.70
79453;BME280;68899;52.116;5.404;2024-01-30T11:37:36;102649.47;;;9.86;85.00
79453;BME280;68899;52.116;5.404;2024-01-30T11:40:04;102660.09;;;9.83;83.98
79453;BME280;68899;52.116;5.404;2024-01-30T11:42:32;102662.88;;;9.77;84.00
79453;BME280;68899;52.116;5.404;2024-01-30T11:45:00;102659.53;;;9.72;83.54
79453;BME280;68899;52.116;5.404;2024-01-30T11:47:28;102673.66;;;9.68;83.79
79453;BME280;68899;52.116;5.404;2024-01-30T11:49:54;102666.75;;;9.66;83.67
79453;BME280;68899;52.116;5.404;2024-01-30T11:52:26;102675.56;;;9.63;83.31
79453;BME280;68899;52.116;5.404;2024-01-30T11:54:53;102668.69;;;9.59;83.23
79453;BME280;68899;52.116;5.404;2024-01-30T11:57:20;102672.22;;;9.58;82.86
79453;BME280;68899;52.116;5.404;2024-01-30T11:59:47;102675.75;;;9.57;83.48
79453;BME280;68899;52.116;5.404;2024-01-30T12:02:16;102663.47;;;9.57;83.00
79453;BME280;68899;52.116;5.404;2024-01-30T12:04:46;102673.94;;;9.59;83.27
79453;BME280;68899;52.116;5.404;2024-01-30T12:07:13;102678.38;;;9.57;82.96
79453;BME280;68899;52.116;5.404;2024-01-30T12:09:42;102688.03;;;9.55;83.12
79453;BME280;68899;52.116;5.404;2024-01-30T12:12:09;102672.28;;;9.55;82.45
79453;BME280;68899;52.116;5.404;2024-01-30T12:14:39;102691.56;;;9.54;82.55
79453;BME280;68899;52.116;5.404;2024-01-30T12:17:05;102689.00;;;9.52;82.64
79453;BME280;68899;52.116;5.404;2024-01-30T12:19:34;102687.22;;;9.53;82.19
79453;BME280;68899;52.116;5.404;2024-01-30T12:22:00;102683.69;;;9.54;81.95
79453;BME280;68899;52.116;5.404;2024-01-30T12:24:27;102680.34;;;9.49;81.71
79453;BME280;68899;52.116;5.404;2024-01-30T12:26:58;102688.34;;;9.44;81.25
79453;BME280;68899;52.116;5.404;2024-01-30T12:29:25;102705.31;;;9.32;80.96
79453;BME280;68899;52.116;5.404;2024-01-30T12:31:54;102715.91;;;9.28;81.22
79453;BME280;68899;52.116;5.404;2024-01-30T12:34:21;102727.47;;;9.22;81.65
79453;BME280;68899;52.116;5.404;2024-01-30T12:36:48;102726.72;;;9.17;81.82
79453;BME280;68899;52.116;5.404;2024-01-30T12:39:15;102726.78;;;9.14;82.35
79453;BME280;68899;52.116;5.404;2024-01-30T12:41:42;102725.97;;;9.12;82.40
79453;BME280;68899;52.116;5.404;2024-01-30T12:44:09;102724.31;;;9.08;82.02
79453;BME280;68899;52.116;5.404;2024-01-30T12:46:35;102717.34;;;9.07;82.03
79453;BME280;68899;52.116;5.404;2024-01-30T12:49:02;102725.28;;;9.05;81.79
79453;BME280;68899;52.116;5.404;2024-01-30T12:51:29;102726.13;;;9.06;81.78
79453;BME280;68899;52.116;5.404;2024-01-30T12:53:55;102718.16;;;9.09;81.42
79453;BME280;68899;52.116;5.404;2024-01-30T12:56:22;102724.22;;;9.11;81.29
79453;BME280;68899;52.116;5.404;2024-01-30T12:58:48;102726.84;;;9.11;81.13
79453;BME280;68899;52.116;5.404;2024-01-30T13:01:19;102724.22;;;9.11;81.26